sensor_id;sensor_type;location;lat;lon;timestamp;P1;durP1;ratioP1;P2;durP2;ratioP2
6420;SDS011;3243;50.958;7.012;2022-11-20T00:00:53;14.77;;;11.33;;
6420;SDS011;3243;50.958;7.012;2022-11-20T00:03:20;15.93;;;11.67;;
6420;SDS011;3243;50.958;7.012;2022-11-20T00:05:47;16.00;;;11.73;;
6420;SDS011;3243;50.958;7.012;2022-11-20T00:08:14;18.20;;;12.77;;
6420;SDS011;3243;50.958;7.012;2022-11-20T00:10:42;16.53;;;11.87;;
6420;SDS011;3243;50.958;7.012;2022-11-20T00:13:09;16.20;;;10.80;;
6420;SDS011;3243;50.958;7.012;2022-11-20T00:15:35;15.90;;;10.87;;
6420;SDS011;3243;50.958;7.012;2022-11-20T00:18:02;15.53;;;11.17;;
6420;SDS011;3243;50.958;7.012;2022-11-20T00:20:29;16.33;;;11.77;;
6420;SDS011;3243;50.958;7.012;2022-11-20T00:22:56;16.10;;;12.13;;
6420;SDS011;3243;50.958;7.012;2022-11-20T00:25:23;15.20;;;11.10;;
6420;SDS011;3243;50.958;7.012;2022-11-20T00:27:50;14.70;;;10.70;;
6420;SDS011;3243;50.958;7.012;2022-11-20T00:30:16;15.60;;;11.40;;
6420;SDS011;3243;50.958;7.012;2022-11-20T00:32:44;16.07;;;11.47;;
6420;SDS011;3243;50.958;7.012;2022-11-20T00:35:10;14.90;;;11.03;;
6420;SDS011;3243;50.958;7.012;2022-11-20T00:37:37;18.07;;;11.70;;
6420;SDS011;3243;50.958;7.012;2022-11-20T00:40:04;16.70;;;11.73;;
6420;SDS011;3243;50.958;7.012;2022-11-20T00:42:31;16.07;;;11.37;;
6420;SDS011;3243;50.958;7.012;2022-11-20T00:44:58;18.33;;;12.40;;
6420;SDS011;3243;50.958;7.012;2022-11-20T00:47:25;16.43;;;12.00;;
6420;SDS011;3243;50.958;7.012;2022-11-20T00:49:52;15.27;;;11.13;;
6420;SDS011;3243;50.958;7.012;2022-11-20T00:52:19;17.27;;;12.70;;
6420;SDS011;3243;50.958;7.012;2022-11-20T00:54:46;16.23;;;11.87;;
6420;SDS011;3243;50.958;7.012;2022-11-20T00:57:13;16.20;;;11.63;;
6420;SDS011;3243;50.958;7.012;2022-11-20T00:59:40;14.47;;;10.80;;
6420;SDS011;3243;50.958;7.012;2022-11-20T01:02:07;16.70;;;11.83;;
6420;SDS011;3243;50.958;7.012;2022-11-20T01:04:33;15.80;;;11.90;;
6420;SDS011;3243;50.958;7.012;2022-11-20T01:07:00;15.30;;;11.30;;
6420;SDS011;3243;50.958;7.012;2022-11-20T01:09:27;15.50;;;11.80;;
6420;SDS011;3243;50.958;7.012;2022-11-20T01:11:54;15.77;;;11.43;;
6420;SDS011;3243;50.958;7.012;2022-11-20T01:14:22;15.53;;;11.40;;
6420;SDS011;3243;50.958;7.012;2022-11-20T01:16:49;17.80;;;11.37;;
6420;SDS011;3243;50.958;7.012;2022-11-20T01:19:18;13.83;;;11.07;;
6420;SDS011;3243;50.958;7.012;2022-11-20T01:21:47;14.20;;;10.53;;
6420;SDS011;3243;50.958;7.012;2022-11-20T01:24:17;16.07;;;11.73;;
6420;SDS011;3243;50.958;7.012;2022-11-20T01:26:46;15.70;;;11.23;;
6420;SDS011;3243;50.958;7.012;2022-11-20T01:29:15;16.57;;;11.40;;
6420;SDS011;3243;50.958;7.012;2022-11-20T01:31:47;14.40;;;11.33;;
6420;SDS011;3243;50.958;7.012;2022-11-20T01:34:16;15.93;;;11.37;;
6420;SDS011;3243;50.958;7.012;2022-11-20T01:36:44;15.13;;;11.07;;
6420;SDS011;3243;50.958;7.012;2022-11-20T01:41:39;14.83;;;10.53;;
6420;SDS011;3243;50.958;7.012;2022-11-20T01:47:29;13.83;;;10.87;;
6420;SDS011;3243;50.958;7.012;2022-11-20T01:52:49;14.77;;;11.00;;
6420;SDS011;3243;50.958;7.012;2022-11-20T01:55:21;14.13;;;10.77;;
6420;SDS011;3243;50.958;7.012;2022-11-20T01:57:52;14.67;;;10.17;;
6420;SDS011;3243;50.958;7.012;2022-11-20T02:00:19;16.20;;;11.60;;
6420;SDS011;3243;50.958;7.012;2022-11-20T02:03:04;14.87;;;11.60;;
6420;SDS011;3243;50.958;7.012;2022-11-20T02:08:23;15.40;;;10.63;;
6420;SDS011;3243;50.958;7.012;2022-11-20T02:10:49;16.20;;;11.80;;
6420;SDS011;3243;50.958;7.012;2022-11-20T02:13:17;14.23;;;11.00;;
6420;SDS011;3243;50.958;7.012;2022-11-20T02:16:03;16.93;;;11.27;;
6420;SDS011;3243;50.958;7.012;2022-11-20T02:18:30;13.90;;;10.50;;
6420;SDS011;3243;50.958;7.012;2022-11-20T02:20:58;14.53;;;11.07;;
6420;SDS011;3243;50.958;7.012;2022-11-20T02:26:27;16.10;;;11.30;;
6420;SDS011;3243;50.958;7.012;2022-11-20T02:28:56;14.47;;;11.43;;
6420;SDS011;3243;50.958;7.012;2022-11-20T02:31:25;15.63;;;11.80;;
6420;SDS011;3243;50.958;7.012;2022-11-20T02:33:55;15.10;;;11.10;;
6420;SDS011;3243;50.958;7.012;2022-11-20T02:36:22;16.27;;;11.57;;
6420;SDS011;3243;50.958;7.012;2022-11-20T02:38:51;15.63;;;11.07;;
6420;SDS011;3243;50.958;7.012;2022-11-20T02:41:19;15.60;;;11.63;;
6420;SDS011;3243;50.958;7.012;2022-11-20T02:43:45;15.60;;;10.70;;
6420;SDS011;3243;50.958;7.012;2022-11-20T02:46:12;14.93;;;11.50;;
6420;SDS011;3243;50.958;7.012;2022-11-20T02:48:40;15.80;;;11.20;;
6420;SDS011;3243;50.958;7.012;2022-11-20T02:51:06;15.23;;;10.50;;
6420;SDS011;3243;50.958;7.012;2022-11-20T02:53:33;16.57;;;11.70;;
6420;SDS011;3243;50.958;7.012;2022-11-20T02:56:00;16.27;;;11.87;;
6420;SDS011;3243;50.958;7.012;2022-11-20T02:58:27;14.67;;;11.17;;
6420;SDS011;3243;50.958;7.012;2022-11-20T03:00:54;18.13;;;12.20;;
6420;SDS011;3243;50.958;7.012;2022-11-20T03:03:21;14.60;;;10.60;;
6420;SDS011;3243;50.958;7.012;2022-11-20T03:05:48;17.10;;;11.80;;
6420;SDS011;3243;50.958;7.012;2022-11-20T03:08:14;14.43;;;10.90;;
6420;SDS011;3243;50.958;7.012;2022-11-20T03:10:42;15.47;;;11.07;;
6420;SDS011;3243;50.958;7.012;2022-11-20T03:13:08;15.67;;;10.60;;
6420;SDS011;3243;50.958;7.012;2022-11-20T03:15:36;14.77;;;10.57;;
6420;SDS011;3243;50.958;7.012;2022-11-20T03:18:03;15.53;;;11.40;;
6420;SDS011;3243;50.958;7.012;2022-11-20T03:20:31;14.97;;;11.70;;
6420;SDS011;3243;50.958;7.012;2022-11-20T03:22:59;15.23;;;10.77;;
6420;SDS011;3243;50.958;7.012;2022-11-20T03:25:26;15.87;;;11.80;;
6420;SDS011;3243;50.958;7.012;2022-11-20T03:27:53;16.83;;;11.93;;
6420;SDS011;3243;50.958;7.012;2022-11-20T03:30:20;16.03;;;12.10;;
6420;SDS011;3243;50.958;7.012;2022-11-20T03:32:55;18.00;;;12.60;;
6420;SDS011;3243;50.958;7.012;2022-11-20T03:35:22;16.87;;;11.97;;
6420;SDS011;3243;50.958;7.012;2022-11-20T03:37:49;15.60;;;11.90;;
6420;SDS011;3243;50.958;7.012;2022-11-20T03:40:16;13.70;;;11.17;;
6420;SDS011;3243;50.958;7.012;2022-11-20T03:42:43;15.67;;;11.83;;
6420;SDS011;3243;50.958;7.012;2022-11-20T03:45:13;15.77;;;11.40;;
6420;SDS011;3243;50.958;7.012;2022-11-20T03:47:44;15.57;;;11.93;;
6420;SDS011;3243;50.958;7.012;2022-11-20T03:50:11;17.87;;;11.77;;
6420;SDS011;3243;50.958;7.012;2022-11-20T03:52:39;16.50;;;11.83;;
6420;SDS011;3243;50.958;7.012;2022-11-20T03:55:06;17.27;;;11.40;;
6420;SDS011;3243;50.958;7.012;2022-11-20T03:57:33;17.17;;;12.00;;
6420;SDS011;3243;50.958;7.012;2022-11-20T04:00:00;16.17;;;12.27;;
6420;SDS011;3243;50.958;7.012;2022-11-20T04:02:27;17.30;;;12.00;;
6420;SDS011;3243;50.958;7.012;2022-11-20T04:04:54;16.73;;;11.70;;
6420;SDS011;3243;50.958;7.012;2022-11-20T04:07:21;20.17;;;12.30;;
6420;SDS011;3243;50.958;7.012;2022-11-20T04:09:47;17.87;;;12.43;;
6420;SDS011;3243;50.958;7.012;2022-11-20T04:12:15;15.57;;;12.60;;
6420;SDS011;3243;50.958;7.012;2022-11-20T04:14:42;17.80;;;12.30;;
6420;SDS011;3243;50.958;7.012;2022-11-20T04:17:09;18.53;;;13.10;;
6420;SDS011;3243;50.958;7.012;2022-11-20T04:19:36;17.67;;;12.93;;
6420;SDS011;3243;50.958;7.012;2022-11-20T04:22:03;19.23;;;13.40;;
6420;SDS011;3243;50.958;7.012;2022-11-20T04:24:29;17.17;;;11.77;;
6420;SDS011;3243;50.958;7.012;2022-11-20T04:26:56;19.73;;;13.33;;
6420;SDS011;3243;50.958;7.012;2022-11-20T04:29:23;17.23;;;12.97;;
6420;SDS011;3243;50.958;7.012;2022-11-20T04:31:50;19.50;;;13.20;;
6420;SDS011;3243;50.958;7.012;2022-11-20T04:34:17;16.23;;;12.30;;
6420;SDS011;3243;50.958;7.012;2022-11-20T04:36:44;15.70;;;12.07;;
6420;SDS011;3243;50.958;7.012;2022-11-20T04:39:12;16.87;;;12.23;;
6420;SDS011;3243;50.958;7.012;2022-11-20T04:41:41;17.63;;;12.23;;
6420;SDS011;3243;50.958;7.012;2022-11-20T04:44:08;18.37;;;12.70;;
6420;SDS011;3243;50.958;7.012;2022-11-20T04:46:36;17.23;;;12.70;;
6420;SDS011;3243;50.958;7.012;2022-11-20T04:49:08;19.33;;;12.83;;
6420;SDS011;3243;50.958;7.012;2022-11-20T04:51:35;18.80;;;12.80;;
6420;SDS011;3243;50.958;7.012;2022-11-20T04:54:01;20.77;;;13.80;;
6420;SDS011;3243;50.958;7.012;2022-11-20T04:56:28;19.60;;;13.37;;
6420;SDS011;3243;50.958;7.012;2022-11-20T04:58:59;21.63;;;14.13;;
6420;SDS011;3243;50.958;7.012;2022-11-20T05:01:26;18.07;;;12.47;;
6420;SDS011;3243;50.958;7.012;2022-11-20T05:03:53;17.23;;;13.00;;
6420;SDS011;3243;50.958;7.012;2022-11-20T05:06:21;19.03;;;12.40;;
6420;SDS011;3243;50.958;7.012;2022-11-20T05:08:48;18.57;;;12.90;;
6420;SDS011;3243;50.958;7.012;2022-11-20T05:11:16;17.63;;;12.17;;
6420;SDS011;3243;50.958;7.012;2022-11-20T05:13:45;18.87;;;12.33;;
6420;SDS011;3243;50.958;7.012;2022-11-20T05:16:14;15.90;;;11.77;;
6420;SDS011;3243;50.958;7.012;2022-11-20T05:18:43;17.13;;;11.73;;
6420;SDS011;3243;50.958;7.012;2022-11-20T05:21:10;15.33;;;11.43;;
6420;SDS011;3243;50.958;7.012;2022-11-20T05:23:38;16.60;;;11.07;;
6420;SDS011;3243;50.958;7.012;2022-11-20T05:26:06;16.97;;;12.30;;
6420;SDS011;3243;50.958;7.012;2022-11-20T05:28:34;15.87;;;11.93;;
6420;SDS011;3243;50.958;7.012;2022-11-20T05:31:04;17.10;;;11.87;;
6420;SDS011;3243;50.958;7.012;2022-11-20T05:33:32;15.80;;;11.37;;
6420;SDS011;3243;50.958;7.012;2022-11-20T05:35:59;17.23;;;12.47;;
6420;SDS011;3243;50.958;7.012;2022-11-20T05:38:26;18.57;;;12.10;;
6420;SDS011;3243;50.958;7.012;2022-11-20T05:40:53;18.90;;;13.03;;
6420;SDS011;3243;50.958;7.012;2022-11-20T05:43:20;16.97;;;12.43;;
6420;SDS011;3243;50.958;7.012;2022-11-20T05:45:53;16.50;;;11.87;;
6420;SDS011;3243;50.958;7.012;2022-11-20T05:48:20;16.70;;;12.37;;
6420;SDS011;3243;50.958;7.012;2022-11-20T05:50:47;20.27;;;13.27;;
6420;SDS011;3243;50.958;7.012;2022-11-20T05:53:14;17.90;;;12.60;;
6420;SDS011;3243;50.958;7.012;2022-11-20T05:55:41;17.47;;;12.40;;
6420;SDS011;3243;50.958;7.012;2022-11-20T05:58:08;15.87;;;11.47;;
6420;SDS011;3243;50.958;7.012;2022-11-20T06:00:35;17.43;;;12.97;;
6420;SDS011;3243;50.958;7.012;2022-11-20T06:03:02;17.03;;;12.17;;
6420;SDS011;3243;50.958;7.012;2022-11-20T06:05:29;18.27;;;12.93;;
6420;SDS011;3243;50.958;7.012;2022-11-20T06:07:56;17.73;;;11.80;;
6420;SDS011;3243;50.958;7.012;2022-11-20T06:10:23;15.77;;;11.70;;
6420;SDS011;3243;50.958;7.012;2022-11-20T06:12:50;17.13;;;12.13;;
6420;SDS011;3243;50.958;7.012;2022-11-20T06:15:17;17.77;;;12.80;;
6420;SDS011;3243;50.958;7.012;2022-11-20T06:17:44;18.83;;;12.27;;
6420;SDS011;3243;50.958;7.012;2022-11-20T06:20:11;17.80;;;11.97;;
6420;SDS011;3243;50.958;7.012;2022-11-20T06:22:41;16.73;;;11.83;;
6420;SDS011;3243;50.958;7.012;2022-11-20T06:25:08;17.17;;;11.87;;
6420;SDS011;3243;50.958;7.012;2022-11-20T06:27:34;18.87;;;12.50;;
6420;SDS011;3243;50.958;7.012;2022-11-20T06:30:02;17.83;;;12.97;;
6420;SDS011;3243;50.958;7.012;2022-11-20T06:32:29;17.37;;;12.70;;
6420;SDS011;3243;50.958;7.012;2022-11-20T06:34:56;18.27;;;12.33;;
6420;SDS011;3243;50.958;7.012;2022-11-20T06:37:23;17.90;;;13.13;;
6420;SDS011;3243;50.958;7.012;2022-11-20T06:39:50;16.53;;;11.90;;
6420;SDS011;3243;50.958;7.012;2022-11-20T06:42:17;19.03;;;12.80;;
6420;SDS011;3243;50.958;7.012;2022-11-20T06:44:44;21.57;;;12.93;;
6420;SDS011;3243;50.958;7.012;2022-11-20T06:47:11;19.60;;;13.00;;
6420;SDS011;3243;50.958;7.012;2022-11-20T06:49:38;18.43;;;12.83;;
6420;SDS011;3243;50.958;7.012;2022-11-20T06:52:06;18.40;;;13.03;;
6420;SDS011;3243;50.958;7.012;2022-11-20T06:54:33;19.43;;;13.73;;
6420;SDS011;3243;50.958;7.012;2022-11-20T06:56:59;19.13;;;13.60;;
6420;SDS011;3243;50.958;7.012;2022-11-20T06:59:26;19.93;;;13.57;;
6420;SDS011;3243;50.958;7.012;2022-11-20T07:01:53;17.77;;;13.20;;
6420;SDS011;3243;50.958;7.012;2022-11-20T07:04:20;20.13;;;13.50;;
6420;SDS011;3243;50.958;7.012;2022-11-20T07:06:47;19.87;;;13.97;;
6420;SDS011;3243;50.958;7.012;2022-11-20T07:09:14;18.70;;;13.33;;
6420;SDS011;3243;50.958;7.012;2022-11-20T07:11:42;20.13;;;13.23;;
6420;SDS011;3243;50.958;7.012;2022-11-20T07:14:09;20.50;;;13.50;;
6420;SDS011;3243;50.958;7.012;2022-11-20T07:16:36;19.17;;;13.43;;
6420;SDS011;3243;50.958;7.012;2022-11-20T07:19:03;17.40;;;12.60;;
6420;SDS011;3243;50.958;7.012;2022-11-20T07:21:29;17.93;;;13.33;;
6420;SDS011;3243;50.958;7.012;2022-11-20T07:23:57;18.80;;;13.17;;
6420;SDS011;3243;50.958;7.012;2022-11-20T07:26:24;20.47;;;14.23;;
6420;SDS011;3243;50.958;7.012;2022-11-20T07:28:50;19.13;;;13.20;;
6420;SDS011;3243;50.958;7.012;2022-11-20T07:31:17;19.47;;;13.70;;
6420;SDS011;3243;50.958;7.012;2022-11-20T07:33:45;18.13;;;13.43;;
6420;SDS011;3243;50.958;7.012;2022-11-20T07:36:12;19.20;;;13.00;;
6420;SDS011;3243;50.958;7.012;2022-11-20T07:38:39;17.23;;;13.17;;
6420;SDS011;3243;50.958;7.012;2022-11-20T07:41:06;18.33;;;13.57;;
6420;SDS011;3243;50.958;7.012;2022-11-20T07:43:32;19.40;;;13.17;;
6420;SDS011;3243;50.958;7.012;2022-11-20T07:46:06;20.83;;;14.13;;
6420;SDS011;3243;50.958;7.012;2022-11-20T07:48:33;19.60;;;13.60;;
6420;SDS011;3243;50.958;7.012;2022-11-20T07:51:00;21.60;;;14.13;;
6420;SDS011;3243;50.958;7.012;2022-11-20T07:53:27;20.10;;;14.10;;
6420;SDS011;3243;50.958;7.012;2022-11-20T07:55:54;22.13;;;14.10;;
6420;SDS011;3243;50.958;7.012;2022-11-20T07:58:21;19.07;;;13.27;;
6420;SDS011;3243;50.958;7.012;2022-11-20T08:00:48;18.97;;;13.57;;
6420;SDS011;3243;50.958;7.012;2022-11-20T08:03:15;20.67;;;13.57;;
6420;SDS011;3243;50.958;7.012;2022-11-20T08:05:49;20.03;;;14.07;;
6420;SDS011;3243;50.958;7.012;2022-11-20T08:08:16;21.17;;;14.17;;
6420;SDS011;3243;50.958;7.012;2022-11-20T08:10:43;21.07;;;14.73;;
6420;SDS011;3243;50.958;7.012;2022-11-20T08:13:10;19.30;;;13.10;;
6420;SDS011;3243;50.958;7.012;2022-11-20T08:15:55;19.90;;;14.07;;
6420;SDS011;3243;50.958;7.012;2022-11-20T08:18:22;19.63;;;13.20;;
6420;SDS011;3243;50.958;7.012;2022-11-20T08:20:57;18.77;;;13.37;;
6420;SDS011;3243;50.958;7.012;2022-11-20T08:23:24;19.73;;;14.37;;
6420;SDS011;3243;50.958;7.012;2022-11-20T08:25:51;20.57;;;14.40;;
6420;SDS011;3243;50.958;7.012;2022-11-20T08:28:18;17.63;;;13.40;;
6420;SDS011;3243;50.958;7.012;2022-11-20T08:30:48;20.33;;;14.13;;
6420;SDS011;3243;50.958;7.012;2022-11-20T08:33:16;20.80;;;14.43;;
6420;SDS011;3243;50.958;7.012;2022-11-20T08:35:44;20.73;;;14.20;;
6420;SDS011;3243;50.958;7.012;2022-11-20T08:38:11;19.73;;;14.07;;
6420;SDS011;3243;50.958;7.012;2022-11-20T08:40:37;19.30;;;13.87;;
6420;SDS011;3243;50.958;7.012;2022-11-20T08:43:05;20.13;;;14.03;;
6420;SDS011;3243;50.958;7.012;2022-11-20T08:45:41;17.93;;;13.47;;
6420;SDS011;3243;50.958;7.012;2022-11-20T08:48:07;19.00;;;13.27;;
6420;SDS011;3243;50.958;7.012;2022-11-20T08:50:34;19.50;;;13.40;;
6420;SDS011;3243;50.958;7.012;2022-11-20T08:53:04;18.80;;;13.67;;
6420;SDS011;3243;50.958;7.012;2022-11-20T08:55:31;20.07;;;14.23;;
6420;SDS011;3243;50.958;7.012;2022-11-20T08:57:59;23.97;;;14.50;;
6420;SDS011;3243;50.958;7.012;2022-11-20T09:00:29;20.77;;;14.70;;
6420;SDS011;3243;50.958;7.012;2022-11-20T09:02:56;20.07;;;14.53;;
6420;SDS011;3243;50.958;7.012;2022-11-20T09:05:24;20.17;;;14.77;;
6420;SDS011;3243;50.958;7.012;2022-11-20T09:07:51;22.17;;;14.13;;
6420;SDS011;3243;50.958;7.012;2022-11-20T09:10:18;19.27;;;13.73;;
6420;SDS011;3243;50.958;7.012;2022-11-20T09:12:50;21.20;;;13.57;;
6420;SDS011;3243;50.958;7.012;2022-11-20T09:15:18;21.13;;;14.97;;
6420;SDS011;3243;50.958;7.012;2022-11-20T09:17:55;19.60;;;13.67;;
6420;SDS011;3243;50.958;7.012;2022-11-20T09:20:24;20.53;;;14.57;;
6420;SDS011;3243;50.958;7.012;2022-11-20T09:22:52;20.43;;;14.50;;
6420;SDS011;3243;50.958;7.012;2022-11-20T09:25:19;21.20;;;14.60;;
6420;SDS011;3243;50.958;7.012;2022-11-20T09:27:46;21.50;;;14.63;;
6420;SDS011;3243;50.958;7.012;2022-11-20T09:30:13;20.13;;;13.67;;
6420;SDS011;3243;50.958;7.012;2022-11-20T09:32:41;18.20;;;13.70;;
6420;SDS011;3243;50.958;7.012;2022-11-20T09:35:08;19.77;;;14.50;;
6420;SDS011;3243;50.958;7.012;2022-11-20T09:37:37;20.63;;;14.20;;
6420;SDS011;3243;50.958;7.012;2022-11-20T09:40:04;19.93;;;14.17;;
6420;SDS011;3243;50.958;7.012;2022-11-20T09:56:28;18.90;;;14.03;;
6420;SDS011;3243;50.958;7.012;2022-11-20T09:58:57;21.73;;;15.70;;
6420;SDS011;3243;50.958;7.012;2022-11-20T10:01:37;21.33;;;15.27;;
6420;SDS011;3243;50.958;7.012;2022-11-20T10:04:13;24.77;;;15.83;;
6420;SDS011;3243;50.958;7.012;2022-11-20T10:06:44;20.30;;;14.67;;
6420;SDS011;3243;50.958;7.012;2022-11-20T10:09:49;21.30;;;14.60;;
6420;SDS011;3243;50.958;7.012;2022-11-20T10:17:54;22.47;;;15.33;;
6420;SDS011;3243;50.958;7.012;2022-11-20T10:31:35;21.63;;;14.73;;
6420;SDS011;3243;50.958;7.012;2022-11-20T10:34:28;24.53;;;16.30;;
6420;SDS011;3243;50.958;7.012;2022-11-20T10:37:09;26.63;;;17.30;;
6420;SDS011;3243;50.958;7.012;2022-11-20T10:43:08;24.30;;;16.70;;
6420;SDS011;3243;50.958;7.012;2022-11-20T10:45:36;22.63;;;15.50;;
6420;SDS011;3243;50.958;7.012;2022-11-20T10:48:21;21.53;;;15.87;;
6420;SDS011;3243;50.958;7.012;2022-11-20T10:53:58;23.43;;;16.40;;
6420;SDS011;3243;50.958;7.012;2022-11-20T10:56:41;21.77;;;15.97;;
6420;SDS011;3243;50.958;7.012;2022-11-20T11:01:45;33.37;;;23.47;;
6420;SDS011;3243;50.958;7.012;2022-11-20T11:04:23;24.43;;;17.97;;
6420;SDS011;3243;50.958;7.012;2022-11-20T11:06:54;29.93;;;21.03;;
6420;SDS011;3243;50.958;7.012;2022-11-20T11:09:32;25.90;;;18.90;;
6420;SDS011;3243;50.958;7.012;2022-11-20T11:12:06;28.23;;;19.10;;
6420;SDS011;3243;50.958;7.012;2022-11-20T11:17:20;25.00;;;16.93;;
6420;SDS011;3243;50.958;7.012;2022-11-20T11:22:33;26.20;;;17.20;;
6420;SDS011;3243;50.958;7.012;2022-11-20T11:25:11;24.97;;;17.27;;
6420;SDS011;3243;50.958;7.012;2022-11-20T11:27:48;22.33;;;15.73;;
6420;SDS011;3243;50.958;7.012;2022-11-20T11:30:17;22.67;;;15.90;;
6420;SDS011;3243;50.958;7.012;2022-11-20T11:32:45;24.63;;;17.70;;
6420;SDS011;3243;50.958;7.012;2022-11-20T11:35:22;25.00;;;16.93;;
6420;SDS011;3243;50.958;7.012;2022-11-20T11:37:51;27.77;;;16.30;;
6420;SDS011;3243;50.958;7.012;2022-11-20T11:40:27;24.13;;;16.60;;
6420;SDS011;3243;50.958;7.012;2022-11-20T11:42:59;23.37;;;16.63;;
6420;SDS011;3243;50.958;7.012;2022-11-20T11:45:53;26.03;;;17.30;;
6420;SDS011;3243;50.958;7.012;2022-11-20T11:48:21;31.13;;;20.63;;
6420;SDS011;3243;50.958;7.012;2022-11-20T11:50:49;26.30;;;18.40;;
6420;SDS011;3243;50.958;7.012;2022-11-20T11:53:17;26.07;;;18.10;;
6420;SDS011;3243;50.958;7.012;2022-11-20T11:58:41;31.23;;;21.27;;
6420;SDS011;3243;50.958;7.012;2022-11-20T12:03:59;28.80;;;20.00;;
6420;SDS011;3243;50.958;7.012;2022-11-20T12:06:45;31.87;;;21.03;;
6420;SDS011;3243;50.958;7.012;2022-11-20T12:09:17;36.00;;;23.20;;
6420;SDS011;3243;50.958;7.012;2022-11-20T12:11:51;46.03;;;27.33;;
6420;SDS011;3243;50.958;7.012;2022-11-20T12:14:27;41.70;;;24.73;;
6420;SDS011;3243;50.958;7.012;2022-11-20T12:17:03;38.10;;;23.03;;
6420;SDS011;3243;50.958;7.012;2022-11-20T12:19:30;37.03;;;23.00;;
6420;SDS011;3243;50.958;7.012;2022-11-20T12:30:18;41.07;;;22.30;;
6420;SDS011;3243;50.958;7.012;2022-11-20T12:52:38;36.77;;;20.47;;
6420;SDS011;3243;50.958;7.012;2022-11-20T12:58:16;28.73;;;17.37;;
6420;SDS011;3243;50.958;7.012;2022-11-20T13:00:54;31.43;;;18.40;;
6420;SDS011;3243;50.958;7.012;2022-11-20T13:03:46;28.03;;;17.23;;
6420;SDS011;3243;50.958;7.012;2022-11-20T13:06:19;27.50;;;17.20;;
6420;SDS011;3243;50.958;7.012;2022-11-20T13:08:52;29.87;;;17.97;;
6420;SDS011;3243;50.958;7.012;2022-11-20T13:16:35;23.93;;;16.23;;
6420;SDS011;3243;50.958;7.012;2022-11-20T13:19:21;24.20;;;15.37;;
6420;SDS011;3243;50.958;7.012;2022-11-20T13:21:49;27.70;;;15.63;;
6420;SDS011;3243;50.958;7.012;2022-11-20T13:24:20;25.73;;;16.43;;
6420;SDS011;3243;50.958;7.012;2022-11-20T13:29:35;25.03;;;16.43;;
6420;SDS011;3243;50.958;7.012;2022-11-20T13:32:11;23.10;;;15.37;;
6420;SDS011;3243;50.958;7.012;2022-11-20T13:34:50;22.87;;;15.10;;
6420;SDS011;3243;50.958;7.012;2022-11-20T13:45:27;18.67;;;12.83;;
6420;SDS011;3243;50.958;7.012;2022-11-20T13:47:57;20.77;;;14.10;;
6420;SDS011;3243;50.958;7.012;2022-11-20T13:58:28;19.23;;;12.93;;
6420;SDS011;3243;50.958;7.012;2022-11-20T14:01:10;21.40;;;13.87;;
6420;SDS011;3243;50.958;7.012;2022-11-20T14:03:46;21.70;;;13.23;;
6420;SDS011;3243;50.958;7.012;2022-11-20T14:06:32;21.40;;;13.67;;
6420;SDS011;3243;50.958;7.012;2022-11-20T14:09:25;19.33;;;12.97;;
6420;SDS011;3243;50.958;7.012;2022-11-20T14:11:54;19.87;;;13.70;;
6420;SDS011;3243;50.958;7.012;2022-11-20T14:14:21;17.87;;;12.67;;
6420;SDS011;3243;50.958;7.012;2022-11-20T14:16:51;19.70;;;13.97;;
6420;SDS011;3243;50.958;7.012;2022-11-20T14:19:30;19.97;;;13.73;;
6420;SDS011;3243;50.958;7.012;2022-11-20T14:24:33;20.57;;;13.60;;
6420;SDS011;3243;50.958;7.012;2022-11-20T14:27:00;25.07;;;14.77;;
6420;SDS011;3243;50.958;7.012;2022-11-20T14:29:34;20.33;;;12.97;;
6420;SDS011;3243;50.958;7.012;2022-11-20T14:32:02;21.30;;;13.97;;
6420;SDS011;3243;50.958;7.012;2022-11-20T14:34:30;18.53;;;12.70;;
6420;SDS011;3243;50.958;7.012;2022-11-20T14:37:02;19.57;;;13.07;;
6420;SDS011;3243;50.958;7.012;2022-11-20T14:39:32;24.37;;;15.43;;
6420;SDS011;3243;50.958;7.012;2022-11-20T14:42:01;24.10;;;14.80;;
6420;SDS011;3243;50.958;7.012;2022-11-20T14:44:30;19.63;;;13.57;;
6420;SDS011;3243;50.958;7.012;2022-11-20T14:46:59;21.07;;;13.60;;
6420;SDS011;3243;50.958;7.012;2022-11-20T14:49:29;20.60;;;13.73;;
6420;SDS011;3243;50.958;7.012;2022-11-20T14:52:01;22.83;;;14.27;;
6420;SDS011;3243;50.958;7.012;2022-11-20T14:54:49;23.57;;;14.70;;
6420;SDS011;3243;50.958;7.012;2022-11-20T15:00:04;22.57;;;14.43;;
6420;SDS011;3243;50.958;7.012;2022-11-20T15:02:33;22.40;;;15.20;;
6420;SDS011;3243;50.958;7.012;2022-11-20T15:05:01;23.80;;;14.10;;
6420;SDS011;3243;50.958;7.012;2022-11-20T15:07:33;19.83;;;13.10;;
6420;SDS011;3243;50.958;7.012;2022-11-20T15:10:09;24.67;;;15.00;;
6420;SDS011;3243;50.958;7.012;2022-11-20T15:12:52;23.10;;;14.30;;
6420;SDS011;3243;50.958;7.012;2022-11-20T15:15:25;21.40;;;14.40;;
6420;SDS011;3243;50.958;7.012;2022-11-20T15:17:59;21.63;;;13.73;;
6420;SDS011;3243;50.958;7.012;2022-11-20T15:20:27;21.07;;;13.97;;
6420;SDS011;3243;50.958;7.012;2022-11-20T15:22:57;24.20;;;14.60;;
6420;SDS011;3243;50.958;7.012;2022-11-20T15:25:24;24.57;;;15.33;;
6420;SDS011;3243;50.958;7.012;2022-11-20T15:27:52;27.17;;;15.97;;
6420;SDS011;3243;50.958;7.012;2022-11-20T15:30:22;23.47;;;15.20;;
6420;SDS011;3243;50.958;7.012;2022-11-20T15:32:49;26.40;;;15.37;;
6420;SDS011;3243;50.958;7.012;2022-11-20T15:35:16;23.63;;;15.60;;
6420;SDS011;3243;50.958;7.012;2022-11-20T15:37:43;25.30;;;16.07;;
6420;SDS011;3243;50.958;7.012;2022-11-20T15:40:10;23.43;;;15.17;;
6420;SDS011;3243;50.958;7.012;2022-11-20T15:42:37;26.30;;;16.90;;
6420;SDS011;3243;50.958;7.012;2022-11-20T15:45:03;25.20;;;16.77;;
6420;SDS011;3243;50.958;7.012;2022-11-20T15:47:31;24.77;;;15.57;;
6420;SDS011;3243;50.958;7.012;2022-11-20T15:50:00;25.63;;;16.00;;
6420;SDS011;3243;50.958;7.012;2022-11-20T15:52:27;25.03;;;16.00;;
6420;SDS011;3243;50.958;7.012;2022-11-20T15:55:09;23.43;;;15.03;;
6420;SDS011;3243;50.958;7.012;2022-11-20T15:57:36;27.50;;;16.53;;
6420;SDS011;3243;50.958;7.012;2022-11-20T16:00:03;29.47;;;16.60;;
6420;SDS011;3243;50.958;7.012;2022-11-20T16:02:30;25.03;;;15.67;;
6420;SDS011;3243;50.958;7.012;2022-11-20T16:04:57;26.67;;;15.97;;
6420;SDS011;3243;50.958;7.012;2022-11-20T16:07:23;55.53;;;31.73;;
6420;SDS011;3243;50.958;7.012;2022-11-20T16:09:50;38.50;;;24.27;;
6420;SDS011;3243;50.958;7.012;2022-11-20T16:12:17;29.77;;;17.70;;
6420;SDS011;3243;50.958;7.012;2022-11-20T16:15:04;28.80;;;17.53;;
6420;SDS011;3243;50.958;7.012;2022-11-20T16:17:50;26.17;;;16.70;;
6420;SDS011;3243;50.958;7.012;2022-11-20T16:20:17;23.33;;;15.50;;
6420;SDS011;3243;50.958;7.012;2022-11-20T16:22:43;26.43;;;16.17;;
6420;SDS011;3243;50.958;7.012;2022-11-20T16:25:10;25.20;;;14.93;;
6420;SDS011;3243;50.958;7.012;2022-11-20T16:27:37;23.40;;;15.33;;
6420;SDS011;3243;50.958;7.012;2022-11-20T16:30:04;28.47;;;16.03;;
6420;SDS011;3243;50.958;7.012;2022-11-20T16:32:31;20.53;;;13.20;;
6420;SDS011;3243;50.958;7.012;2022-11-20T16:34:58;21.50;;;13.87;;
6420;SDS011;3243;50.958;7.012;2022-11-20T16:37:25;22.73;;;15.03;;
6420;SDS011;3243;50.958;7.012;2022-11-20T16:39:51;24.70;;;14.60;;
6420;SDS011;3243;50.958;7.012;2022-11-20T16:42:18;20.67;;;12.80;;
6420;SDS011;3243;50.958;7.012;2022-11-20T16:44:45;28.43;;;15.47;;
6420;SDS011;3243;50.958;7.012;2022-11-20T16:47:13;26.50;;;14.80;;
6420;SDS011;3243;50.958;7.012;2022-11-20T16:49:40;24.67;;;14.87;;
6420;SDS011;3243;50.958;7.012;2022-11-20T16:52:08;19.83;;;12.17;;
6420;SDS011;3243;50.958;7.012;2022-11-20T16:54:35;20.90;;;12.10;;
6420;SDS011;3243;50.958;7.012;2022-11-20T16:57:02;18.33;;;12.80;;
6420;SDS011;3243;50.958;7.012;2022-11-20T16:59:29;20.00;;;12.80;;
6420;SDS011;3243;50.958;7.012;2022-11-20T17:01:55;19.97;;;12.47;;
6420;SDS011;3243;50.958;7.012;2022-11-20T17:04:22;20.03;;;12.03;;
6420;SDS011;3243;50.958;7.012;2022-11-20T17:06:50;19.53;;;11.53;;